Time;durP1;ratioP1;P1;durP2;ratioP2;P2;SDS_P1;SDS_P2;PMS_P1;PMS_P2;Temp;Humidity;BMP_temperature;BMP_pressure;BME280_temperature;BME280_humidity;BME280_pressure;Samples;Min_cycle;Max_cycle;Signal;HPM_P1;HPM_P2
2021/12/28 00:01:09;;;;;;;31.00;18.67;;;4.90;99.90;;;;;;5012830;28;20129;-80
2021/12/28 00:03:36;;;;;;;30.52;19.92;;;4.90;99.90;;;;;;5005041;28;20099;-80
2021/12/28 00:06:02;;;;;;;30.95;19.65;;;4.90;99.90;;;;;;5014706;28;20124;-80
2021/12/28 00:08:28;;;;;;;35.78;21.50;;;5.00;99.90;;;;;;5022390;28;20045;-80
2021/12/28 00:10:55;;;;;;;30.70;20.25;;;5.10;99.90;;;;;;5001348;28;20037;-80
2021/12/28 00:13:21;;;;;;;27.48;19.45;;;5.10;99.90;;;;;;5016819;28;20623;-80
2021/12/28 00:15:50;;;;;;;27.02;18.42;;;5.10;99.90;;;;;;5013478;28;20033;-80
2021/12/28 00:18:16;;;;;;;33.65;20.55;;;5.10;99.90;;;;;;5013591;28;20080;-80
2021/12/28 00:20:46;;;;;;;34.28;20.98;;;5.10;99.90;;;;;;5024199;28;20106;-80
2021/12/28 00:23:17;;;;;;;35.70;21.33;;;5.30;99.90;;;;;;5018858;28;20425;-80
2021/12/28 00:25:44;;;;;;;33.92;21.38;;;5.30;99.90;;;;;;5025839;28;20071;-80
2021/12/28 00:28:10;;;;;;;36.03;23.15;;;5.30;99.90;;;;;;5017786;28;20140;-80
2021/12/28 00:30:36;;;;;;;43.50;24.52;;;5.40;99.90;;;;;;5009248;28;20140;-80
2021/12/28 00:33:03;;;;;;;37.22;21.77;;;5.40;99.90;;;;;;5024037;28;20552;-80
2021/12/28 00:35:37;;;;;;;40.05;23.23;;;5.40;99.90;;;;;;5004316;28;20099;-80
2021/12/28 00:38:04;;;;;;;46.75;24.20;;;5.50;99.90;;;;;;5020954;28;20126;-80
2021/12/28 00:40:31;;;;;;;48.28;25.45;;;5.50;99.90;;;;;;5001768;28;20455;-80
2021/12/28 00:42:57;;;;;;;38.03;22.88;;;5.60;99.90;;;;;;5020003;28;20512;-79
2021/12/28 00:45:23;;;;;;;43.42;24.02;;;5.50;99.90;;;;;;5015228;28;20037;-79
2021/12/28 00:47:52;;;;;;;48.58;24.80;;;5.60;99.90;;;;;;4994821;28;20045;-80
2021/12/28 00:50:18;;;;;;;57.55;28.33;;;5.50;99.90;;;;;;4980968;28;20587;-80
2021/12/28 00:52:46;;;;;;;45.80;25.63;;;5.70;99.90;;;;;;4994933;28;20099;-79
2021/12/28 00:55:14;;;;;;;40.15;24.33;;;5.60;99.90;;;;;;5003442;28;20079;-80
2021/12/28 00:57:40;;;;;;;40.28;24.20;;;5.60;99.90;;;;;;4997360;28;20049;-80
2021/12/28 01:00:10;;;;;;;47.63;26.40;;;5.60;99.90;;;;;;4997674;28;20116;-80
2021/12/28 01:02:38;;;;;;;46.20;26.40;;;5.70;99.90;;;;;;4999841;28;20033;-80
2021/12/28 01:05:05;;;;;;;53.40;30.15;;;5.80;99.90;;;;;;4996339;28;20029;-80
2021/12/28 01:07:31;;;;;;;53.22;29.23;;;5.80;99.90;;;;;;4982174;28;20034;-80
2021/12/28 01:09:57;;;;;;;53.65;27.85;;;5.90;99.90;;;;;;5015411;28;20409;-79
2021/12/28 01:12:29;;;;;;;50.42;27.90;;;5.90;99.90;;;;;;4987449;28;20041;-80
2021/12/28 01:14:54;;;;;;;62.13;30.75;;;5.90;99.90;;;;;;5002748;28;20471;-80
2021/12/28 01:17:20;;;;;;;60.92;28.77;;;6.00;99.90;;;;;;5017355;28;20037;-80
2021/12/28 01:19:46;;;;;;;64.97;30.83;;;6.00;99.90;;;;;;5015500;28;20370;-80
2021/12/28 01:22:12;;;;;;;61.55;31.17;;;6.00;99.90;;;;;;4992880;28;20048;-80
2021/12/28 01:24:38;;;;;;;73.82;34.13;;;6.00;99.90;;;;;;5019628;28;20087;-80
2021/12/28 01:27:03;;;;;;;77.05;34.47;;;6.10;99.90;;;;;;5001636;28;20037;-80
2021/12/28 01:29:29;;;;;;;65.10;31.98;;;6.10;99.90;;;;;;5005220;28;20042;-80
2021/12/28 01:31:55;;;;;;;83.43;34.95;;;6.10;99.90;;;;;;5018946;28;20053;-80
2021/12/28 01:34:21;;;;;;;76.20;34.45;;;6.20;99.90;;;;;;4985612;28;20045;-80
2021/12/28 01:36:47;;;;;;;98.20;38.22;;;6.30;99.90;;;;;;5003665;28;20061;-80
2021/12/28 01:39:12;;;;;;;89.93;36.20;;;6.30;99.90;;;;;;5001816;28;20077;-80
2021/12/28 01:41:39;;;;;;;95.93;38.28;;;6.30;99.90;;;;;;4982285;28;20034;-80
2021/12/28 01:44:08;;;;;;;119.95;41.20;;;6.30;99.90;;;;;;5002558;28;20119;-79
2021/12/28 01:46:34;;;;;;;115.00;40.50;;;6.30;99.90;;;;;;4987023;28;20357;-80
2021/12/28 01:49:00;;;;;;;107.50;40.60;;;6.40;99.90;;;;;;5002218;28;20041;-80
2021/12/28 01:51:27;;;;;;;100.95;41.15;;;6.50;99.90;;;;;;5016130;28;20048;-80
2021/12/28 01:53:56;;;;;;;103.97;40.03;;;6.50;99.90;;;;;;4986030;28;20045;-80
2021/12/28 01:56:40;;;;;;;94.65;39.60;;;6.60;99.90;;;;;;5015303;28;20037;-80
2021/12/28 01:59:08;;;;;;;98.00;37.92;;;6.50;99.90;;;;;;5002750;28;20040;-80
2021/12/28 02:01:35;;;;;;;150.88;44.45;;;6.60;99.90;;;;;;4978494;28;20030;-80
2021/12/28 02:04:01;;;;;;;120.00;43.08;;;6.60;99.90;;;;;;5003992;28;20036;-80
2021/12/28 02:06:28;;;;;;;167.18;48.03;;;6.60;99.90;;;;;;5001440;28;20134;-79
2021/12/28 02:08:54;;;;;;;152.07;45.42;;;6.60;99.90;;;;;;4984614;28;20046;-79
2021/12/28 02:11:21;;;;;;;183.07;46.75;;;6.60;99.90;;;;;;5001697;28;20037;-80
2021/12/28 02:13:48;;;;;;;136.13;41.63;;;6.60;99.90;;;;;;5001178;28;20464;-80
2021/12/28 02:16:14;;;;;;;102.85;39.17;;;6.60;99.90;;;;;;4985333;28;20366;-80
2021/12/28 02:18:41;;;;;;;128.52;41.65;;;6.60;99.90;;;;;;4978039;28;20463;-79
2021/12/28 02:21:08;;;;;;;108.03;39.67;;;6.60;99.90;;;;;;5001214;28;20429;-79
2021/12/28 02:23:35;;;;;;;453.55;62.33;;;6.60;99.90;;;;;;5002172;28;20030;-80
2021/12/28 02:26:02;;;;;;;112.18;38.10;;;6.60;99.90;;;;;;4999211;28;20041;-80
2021/12/28 02:28:27;;;;;;;176.68;41.63;;;6.60;99.90;;;;;;5004178;28;20095;-80
2021/12/28 02:30:56;;;;;;;219.35;48.75;;;6.60;99.90;;;;;;5002183;28;20404;-80
2021/12/28 02:33:26;;;;;;;420.85;63.40;;;6.70;99.90;;;;;;5029348;28;20085;-79
2021/12/28 02:35:54;;;;;;;418.30;62.55;;;6.70;99.90;;;;;;4999958;28;20047;-80
2021/12/28 02:38:20;;;;;;;187.90;46.30;;;6.70;99.90;;;;;;5002707;28;20500;-80
2021/12/28 02:40:46;;;;;;;323.50;56.70;;;6.80;99.90;;;;;;4999774;28;20107;-80
2021/12/28 02:43:13;;;;;;;148.80;46.92;;;6.80;99.90;;;;;;5013389;28;20363;-80
2021/12/28 02:45:48;;;;;;;268.77;53.90;;;6.70;99.90;;;;;;5011327;28;20391;-80
2021/12/28 02:48:14;;;;;;;216.88;48.67;;;6.80;99.90;;;;;;5016203;28;20053;-80
2021/12/28 02:50:43;;;;;;;495.73;64.78;;;6.80;99.90;;;;;;5040326;28;20124;-80
2021/12/28 02:53:14;;;;;;;163.30;43.55;;;6.70;99.90;;;;;;5005054;28;20038;-80
2021/12/28 02:55:40;;;;;;;260.63;51.38;;;6.80;99.90;;;;;;5032804;28;20149;-80
2021/12/28 02:58:09;;;;;;;327.13;60.05;;;6.90;99.90;;;;;;5010355;28;20583;-80
2021/12/28 03:00:43;;;;;;;355.55;59.20;;;7.00;99.90;;;;;;5022611;28;20056;-80
2021/12/28 03:03:23;;;;;;;341.52;57.50;;;7.00;99.90;;;;;;5043094;28;20033;-79
2021/12/28 03:05:51;;;;;;;160.52;47.03;;;7.00;99.90;;;;;;5021187;28;20045;-80
2021/12/28 03:08:19;;;;;;;391.30;63.38;;;7.10;99.90;;;;;;5023448;28;20228;-80
2021/12/28 03:10:49;;;;;;;484.58;70.43;;;7.10;99.90;;;;;;5017987;28;20497;-80
2021/12/28 03:13:28;;;;;;;227.38;50.78;;;7.10;99.90;;;;;;5015658;28;20475;-80
2021/12/28 03:15:55;;;;;;;390.48;62.25;;;7.10;99.90;;;;;;4998932;28;20049;-80
2021/12/28 03:18:20;;;;;;;307.50;54.55;;;7.20;99.90;;;;;;5001621;28;20029;-80
2021/12/28 03:20:46;;;;;;;407.98;64.95;;;7.10;99.90;;;;;;5002358;28;20114;-80
2021/12/28 03:23:19;;;;;;;281.85;51.95;;;7.10;99.90;;;;;;5006480;28;20490;-80
2021/12/28 03:25:47;;;;;;;256.95;49.72;;;7.10;99.90;;;;;;5025460;28;20132;-80
2021/12/28 03:28:21;;;;;;;436.50;63.55;;;7.20;99.90;;;;;;5015465;28;20033;-80
2021/12/28 03:31:00;;;;;;;220.23;51.28;;;7.10;99.90;;;;;;5014455;28;20041;-80
2021/12/28 03:33:30;;;;;;;376.70;60.25;;;7.20;99.90;;;;;;5016384;28;20057;-80
2021/12/28 03:35:56;;;;;;;323.20;55.30;;;7.20;99.90;;;;;;5025302;28;20052;-80
2021/12/28 03:38:22;;;;;;;198.40;50.95;;;7.20;99.90;;;;;;5014250;28;20033;-80
2021/12/28 03:40:49;;;;;;;317.58;57.58;;;7.20;99.90;;;;;;5024941;28;20500;-80
2021/12/28 03:43:15;;;;;;;291.75;54.60;;;7.20;99.90;;;;;;5002634;28;20102;-80
2021/12/28 03:45:41;;;;;;;199.57;48.42;;;7.20;99.90;;;;;;5013161;28;20079;-80
2021/12/28 03:48:10;;;;;;;511.27;70.00;;;7.20;99.90;;;;;;5014689;28;20045;-79
2021/12/28 03:50:36;;;;;;;437.55;63.53;;;7.20;99.90;;;;;;5017041;28;20121;-80
2021/12/28 03:53:03;;;;;;;472.30;69.00;;;7.20;99.90;;;;;;5020337;28;20045;-80
2021/12/28 03:55:29;;;;;;;177.70;46.42;;;7.20;99.90;;;;;;5005333;28;20489;-80
2021/12/28 03:57:56;;;;;;;227.57;49.65;;;7.20;99.90;;;;;;5040216;28;20039;-80
2021/12/28 04:00:23;;;;;;;218.55;48.72;;;7.30;99.90;;;;;;5027689;28;20033;-80
2021/12/28 04:02:50;;;;;;;216.95;47.53;;;7.30;99.90;;;;;;5026486;28;21354;-80
2021/12/28 04:05:16;;;;;;;199.10;45.63;;;7.40;99.90;;;;;;5001891;28;20048;-80
2021/12/28 04:07:43;;;;;;;167.82;45.42;;;7.40;99.90;;;;;;5005957;28;20048;-80
2021/12/28 04:10:11;;;;;;;305.05;52.58;;;7.30;99.90;;;;;;5023332;28;20040;-80
2021/12/28 04:12:37;;;;;;;204.02;44.17;;;7.30;99.90;;;;;;5015283;28;20161;-80
2021/12/28 04:15:06;;;;;;;190.00;41.72;;;7.30;99.90;;;;;;5018907;28;20041;-80
2021/12/28 04:17:33;;;;;;;240.35;49.53;;;7.30;99.90;;;;;;5026140;28;20115;-80
2021/12/28 04:19:59;;;;;;;461.63;56.78;;;7.30;99.90;;;;;;5023498;28;20025;-80
2021/12/28 04:22:25;;;;;;;227.40;46.10;;;7.30;99.90;;;;;;5019621;28;20887;-80
2021/12/28 04:24:50;;;;;;;432.55;60.15;;;7.30;99.90;;;;;;5017437;28;20041;-80
2021/12/28 04:27:16;;;;;;;146.20;41.95;;;7.30;99.90;;;;;;5016145;28;20068;-80
2021/12/28 04:29:43;;;;;;;152.55;40.88;;;7.30;99.90;;;;;;5012596;28;20040;-80
2021/12/28 04:32:08;;;;;;;227.00;47.55;;;7.30;99.90;;;;;;5003766;28;20053;-80
2021/12/28 04:34:34;;;;;;;163.70;42.28;;;7.40;99.90;;;;;;5014881;28;20378;-80
2021/12/28 04:37:00;;;;;;;171.05;43.03;;;7.40;99.90;;;;;;5015596;28;20041;-80
2021/12/28 04:39:25;;;;;;;148.02;42.75;;;7.40;99.90;;;;;;5010956;28;20032;-80
2021/12/28 04:41:51;;;;;;;207.68;48.55;;;7.40;99.90;;;;;;5015579;28;20045;-80
2021/12/28 04:44:23;;;;;;;182.50;44.45;;;7.50;99.90;;;;;;5015002;28;20539;-80
2021/12/28 04:46:49;;;;;;;155.32;43.88;;;7.60;99.90;;;;;;5024921;28;20058;-80
2021/12/28 04:49:16;;;;;;;454.67;67.13;;;7.60;99.90;;;;;;4997642;28;20037;-80
2021/12/28 04:51:42;;;;;;;400.13;63.40;;;7.60;99.90;;;;;;5019590;28;20045;-80
2021/12/28 04:54:12;;;;;;;253.00;50.08;;;7.60;99.90;;;;;;5014647;28;20507;-80
2021/12/28 04:56:39;;;;;;;177.93;47.08;;;7.50;99.90;;;;;;5013340;28;20480;-80
2021/12/28 04:59:04;;;;;;;166.63;44.53;;;7.60;99.90;;;;;;5012971;28;20033;-80
2021/12/28 05:01:30;;;;;;;204.93;49.22;;;7.50;99.90;;;;;;5021134;28;20389;-80
2021/12/28 05:03:56;;;;;;;209.57;45.65;;;7.50;99.90;;;;;;5010502;28;20043;-80
2021/12/28 05:06:22;;;;;;;190.25;47.53;;;7.50;99.90;;;;;;5023627;28;20416;-80
2021/12/28 05:08:48;;;;;;;208.30;45.40;;;7.50;99.90;;;;;;5000081;28;20069;-80
2021/12/28 05:11:14;;;;;;;178.85;45.65;;;7.50;99.90;;;;;;4991950;28;20037;-80
2021/12/28 05:13:41;;;;;;;183.85;47.25;;;7.50;99.90;;;;;;5014409;28;20508;-80
2021/12/28 05:16:14;;;;;;;132.23;41.42;;;7.50;99.90;;;;;;5033005;28;20472;-80
2021/12/28 05:18:39;;;;;;;261.80;51.10;;;7.50;99.90;;;;;;4995610;28;20152;-80
2021/12/28 05:21:05;;;;;;;137.77;39.38;;;7.50;99.90;;;;;;5006369;28;20124;-80
2021/12/28 05:23:31;;;;;;;128.48;38.13;;;7.50;99.90;;;;;;5011432;28;20489;-80
2021/12/28 05:25:56;;;;;;;152.85;42.10;;;7.50;99.90;;;;;;5000652;28;20492;-80
2021/12/28 05:28:25;;;;;;;139.07;39.25;;;7.50;99.90;;;;;;5021859;28;20054;-80
2021/12/28 05:30:52;;;;;;;140.65;40.03;;;7.50;99.90;;;;;;5000313;28;20045;-80
2021/12/28 05:33:17;;;;;;;146.30;39.97;;;7.40;99.90;;;;;;5019195;28;20063;-80
2021/12/28 05:35:43;;;;;;;145.98;40.72;;;7.40;99.90;;;;;;4995131;28;20041;-80
2021/12/28 05:38:11;;;;;;;121.60;37.20;;;7.40;99.90;;;;;;5016692;28;20037;-80
2021/12/28 05:40:38;;;;;;;113.40;35.45;;;7.40;99.90;;;;;;5019772;28;20464;-80
2021/12/28 05:43:04;;;;;;;163.05;40.22;;;7.40;99.90;;;;;;5018217;28;20104;-80
2021/12/28 05:45:30;;;;;;;125.65;36.28;;;7.30;99.90;;;;;;5014033;28;20112;-80
2021/12/28 05:47:55;;;;;;;158.18;40.95;;;7.30;99.90;;;;;;5020074;28;20587;-80
2021/12/28 05:50:21;;;;;;;119.25;35.40;;;7.30;99.90;;;;;;5011040;28;20060;-80
2021/12/28 05:52:47;;;;;;;109.53;33.58;;;7.30;99.90;;;;;;5016894;28;20033;-80
2021/12/28 05:55:12;;;;;;;149.85;40.00;;;7.30;99.90;;;;;;4994671;28;20044;-80
2021/12/28 05:57:38;;;;;;;159.43;37.33;;;7.20;99.90;;;;;;4998492;28;20068;-80
2021/12/28 06:00:06;;;;;;;142.75;38.20;;;7.20;99.90;;;;;;5012638;28;20044;-80
2021/12/28 06:02:36;;;;;;;189.85;42.60;;;7.10;99.90;;;;;;5002442;28;20460;-80
2021/12/28 06:05:03;;;;;;;104.13;36.03;;;7.10;99.90;;;;;;5004373;28;20582;-80
2021/12/28 06:07:29;;;;;;;138.10;37.83;;;7.10;99.90;;;;;;5012980;28;20451;-80
2021/12/28 06:09:56;;;;;;;133.77;36.03;;;7.00;99.90;;;;;;5009995;28;20144;-80
2021/12/28 06:12:23;;;;;;;125.43;36.88;;;6.90;99.90;;;;;;5018882;28;20094;-80
2021/12/28 06:14:49;;;;;;;159.23;38.63;;;6.90;99.90;;;;;;5016334;28;20037;-80
2021/12/28 06:17:15;;;;;;;123.70;31.65;;;6.80;99.90;;;;;;5007363;28;20505;-80
2021/12/28 06:19:41;;;;;;;83.78;30.20;;;6.80;99.90;;;;;;5020043;28;20509;-80
2021/12/28 06:22:07;;;;;;;81.07;30.33;;;6.80;99.90;;;;;;5018580;28;20108;-80
2021/12/28 06:24:33;;;;;;;82.72;30.58;;;6.70;99.90;;;;;;5011382;28;20065;-80
2021/12/28 06:26:59;;;;;;;82.25;29.45;;;6.70;99.90;;;;;;5014011;28;20064;-80
2021/12/28 06:29:25;;;;;;;160.98;38.85;;;6.70;99.90;;;;;;5026220;28;20076;-80
2021/12/28 06:31:53;;;;;;;83.22;30.15;;;6.60;99.90;;;;;;5028029;28;20157;-80
2021/12/28 06:34:18;;;;;;;123.20;35.35;;;6.60;99.90;;;;;;4993766;28;20212;-80
2021/12/28 06:36:44;;;;;;;150.10;33.03;;;6.70;99.90;;;;;;4987985;28;20120;-80
2021/12/28 06:39:11;;;;;;;112.00;30.35;;;6.60;99.90;;;;;;5001198;28;20126;-80
2021/12/28 06:41:38;;;;;;;70.03;26.13;;;6.60;99.90;;;;;;5002606;28;20041;-80
2021/12/28 06:44:09;;;;;;;89.72;29.05;;;6.50;99.90;;;;;;4996572;28;20038;-80
2021/12/28 06:46:37;;;;;;;77.75;27.35;;;6.60;99.90;;;;;;5004865;28;20459;-80
2021/12/28 06:49:03;;;;;;;68.20;25.52;;;6.50;99.90;;;;;;5008045;28;20052;-80
2021/12/28 06:51:29;;;;;;;66.88;26.30;;;6.60;99.90;;;;;;4991476;28;20038;-80
2021/12/28 06:53:55;;;;;;;66.65;26.65;;;6.60;99.90;;;;;;4986320;28;20060;-80
2021/12/28 06:56:24;;;;;;;89.55;28.45;;;6.60;99.90;;;;;;4977291;28;20041;-80
2021/12/28 06:58:49;;;;;;;90.45;27.70;;;6.60;99.90;;;;;;5006576;28;20038;-80
2021/12/28 07:01:16;;;;;;;63.92;27.13;;;6.60;99.90;;;;;;5002395;28;20086;-80
2021/12/28 07:03:41;;;;;;;94.63;29.30;;;6.60;99.90;;;;;;4991541;28;20064;-80
2021/12/28 07:06:07;;;;;;;75.40;26.52;;;6.60;99.90;;;;;;5002224;28;20057;-80
2021/12/28 07:08:34;;;;;;;71.55;25.33;;;6.60;99.90;;;;;;5004408;28;20116;-80
2021/12/28 07:11:00;;;;;;;72.97;25.33;;;6.60;99.90;;;;;;4991072;28;20037;-80
2021/12/28 07:13:26;;;;;;;62.92;24.00;;;6.60;99.90;;;;;;4989128;28;20374;-80
2021/12/28 07:15:52;;;;;;;83.20;26.50;;;6.60;99.90;;;;;;4988937;28;20146;-80
2021/12/28 07:18:18;;;;;;;63.35;24.92;;;6.50;99.90;;;;;;5000269;28;20142;-80
2021/12/28 07:20:44;;;;;;;81.72;26.27;;;6.60;99.90;;;;;;4989174;28;20033;-80
2021/12/28 07:23:09;;;;;;;66.13;24.45;;;6.60;99.90;;;;;;5000146;28;20030;-80
2021/12/28 07:25:36;;;;;;;56.05;22.30;;;6.60;99.90;;;;;;5006698;28;20088;-80
2021/12/28 07:28:02;;;;;;;62.58;24.10;;;6.70;99.90;;;;;;5005623;28;20176;-80
2021/12/28 07:30:28;;;;;;;66.63;25.48;;;6.80;99.90;;;;;;5002498;28;20049;-80
2021/12/28 07:32:54;;;;;;;78.88;25.95;;;6.90;99.90;;;;;;5000623;28;20388;-80
2021/12/28 07:35:20;;;;;;;72.85;24.33;;;6.90;99.90;;;;;;5008349;28;20548;-80
2021/12/28 07:37:46;;;;;;;64.40;24.95;;;6.90;99.90;;;;;;5026455;28;20055;-80
2021/12/28 07:40:12;;;;;;;61.92;23.52;;;6.90;99.90;;;;;;5009355;28;20064;-80
2021/12/28 07:42:39;;;;;;;54.55;22.83;;;6.90;99.90;;;;;;5021777;28;20041;-80
2021/12/28 07:45:09;;;;;;;63.60;24.17;;;6.90;99.90;;;;;;5019994;28;20422;-80
2021/12/28 07:47:38;;;;;;;51.72;22.63;;;6.90;99.90;;;;;;5028939;28;20048;-80
2021/12/28 07:50:06;;;;;;;59.78;24.35;;;7.00;99.90;;;;;;5026982;28;20047;-80
2021/12/28 07:52:32;;;;;;;62.03;22.95;;;6.80;99.90;;;;;;5049016;28;20043;-80
2021/12/28 07:54:57;;;;;;;53.50;21.98;;;6.80;99.90;;;;;;5026992;28;20037;-80
2021/12/28 07:57:23;;;;;;;48.33;21.60;;;6.80;99.90;;;;;;5025457;28;20045;-80
2021/12/28 07:59:49;;;;;;;63.65;23.30;;;6.80;99.90;;;;;;5021287;28;20044;-80
2021/12/28 08:02:17;;;;;;;54.25;21.02;;;6.80;99.90;;;;;;5023795;28;20513;-80
2021/12/28 08:04:43;;;;;;;49.08;20.17;;;6.80;99.90;;;;;;5008844;28;20053;-80
2021/12/28 08:07:09;;;;;;;53.33;21.10;;;6.80;99.90;;;;;;5020494;28;20068;-80
2021/12/28 08:09:34;;;;;;;57.65;21.17;;;6.80;99.90;;;;;;5002125;28;20041;-80
2021/12/28 08:12:00;;;;;;;56.17;20.70;;;6.80;99.90;;;;;;5023558;28;20076;-80
2021/12/28 08:14:26;;;;;;;54.15;20.85;;;6.80;99.90;;;;;;5020137;28;20388;-80
2021/12/28 08:16:51;;;;;;;55.30;21.88;;;6.80;99.90;;;;;;5026752;28;20104;-80
2021/12/28 08:19:17;;;;;;;58.15;20.75;;;6.90;99.90;;;;;;5022986;28;20422;-79
2021/12/28 08:21:44;;;;;;;46.10;19.70;;;6.90;99.90;;;;;;5009017;28;20037;-80
2021/12/28 08:24:10;;;;;;;51.33;19.98;;;6.90;99.90;;;;;;5022697;28;20037;-80
2021/12/28 08:26:35;;;;;;;47.42;18.67;;;7.00;99.90;;;;;;5024615;28;20055;-80
2021/12/28 08:29:01;;;;;;;44.08;18.85;;;7.10;99.90;;;;;;5007508;28;20127;-80
2021/12/28 08:31:27;;;;;;;47.63;18.17;;;7.20;99.90;;;;;;5021710;28;20044;-80
2021/12/28 08:33:53;;;;;;;48.10;18.77;;;7.20;99.90;;;;;;5020497;28;20527;-80
2021/12/28 08:36:19;;;;;;;43.22;17.98;;;7.40;99.90;;;;;;5013578;28;20157;-80
2021/12/28 08:38:44;;;;;;;48.15;18.48;;;7.40;99.90;;;;;;5018244;28;20576;-80
2021/12/28 08:41:11;;;;;;;49.15;17.55;;;7.50;99.90;;;;;;5015441;28;20138;-80
2021/12/28 08:43:37;;;;;;;40.90;17.00;;;7.50;99.90;;;;;;5025127;28;20055;-80
2021/12/28 08:46:04;;;;;;;41.95;16.73;;;7.60;99.90;;;;;;5016660;28;20126;-79
2021/12/28 08:48:29;;;;;;;36.60;15.23;;;7.50;99.90;;;;;;5024192;28;20045;-80
2021/12/28 08:50:55;;;;;;;40.20;16.15;;;7.60;99.90;;;;;;5000459;28;20459;-80
2021/12/28 08:53:21;;;;;;;42.78;16.17;;;7.60;99.90;;;;;;5012682;28;20047;-80
2021/12/28 08:55:48;;;;;;;35.28;15.68;;;7.70;99.90;;;;;;5022093;28;20469;-80
2021/12/28 08:58:15;;;;;;;35.67;15.48;;;7.70;99.90;;;;;;5005764;28;20306;-80
2021/12/28 09:00:43;;;;;;;38.47;15.23;;;7.70;99.90;;;;;;5017992;28;20043;-80
2021/12/28 09:03:09;;;;;;;37.88;14.90;;;7.70;99.90;;;;;;5017329;28;20040;-80
2021/12/28 09:05:37;;;;;;;36.92;14.65;;;7.80;99.90;;;;;;5000082;28;20046;-80
2021/12/28 09:08:08;;;;;;;30.83;14.27;;;7.80;99.90;;;;;;5029716;28;21045;-80
2021/12/28 09:10:35;;;;;;;34.28;14.30;;;7.90;99.90;;;;;;4993685;28;20053;-80
2021/12/28 09:13:00;;;;;;;31.40;13.20;;;7.90;99.90;;;;;;5012169;28;20121;-80
2021/12/28 09:15:26;;;;;;;30.85;12.75;;;8.00;99.90;;;;;;5004309;28;20458;-80
2021/12/28 09:17:52;;;;;;;27.02;12.88;;;8.00;99.90;;;;;;5002275;28;20099;-80
2021/12/28 09:20:26;;;;;;;28.08;12.85;;;8.00;99.90;;;;;;5007881;28;20516;-80
2021/12/28 09:22:53;;;;;;;35.05;12.93;;;8.10;99.90;;;;;;5029571;28;20029;-80
2021/12/28 09:25:19;;;;;;;27.65;12.40;;;8.10;99.90;;;;;;5026431;28;20036;-80
2021/12/28 09:27:46;;;;;;;29.98;13.63;;;8.20;99.90;;;;;;5008353;28;20506;-80
2021/12/28 09:30:13;;;;;;;29.98;13.02;;;8.10;99.90;;;;;;5017071;28;20043;-80
2021/12/28 09:32:42;;;;;;;29.35;12.32;;;8.10;99.90;;;;;;5029571;28;20059;-80
2021/12/28 09:35:10;;;;;;;26.73;12.38;;;8.10;99.90;;;;;;5016337;28;20059;-80
2021/12/28 09:37:36;;;;;;;24.95;11.55;;;8.10;99.90;;;;;;5028414;28;20034;-80
2021/12/28 09:40:05;;;;;;;26.85;11.18;;;8.10;99.90;;;;;;4993954;28;20078;-80
2021/12/28 09:42:31;;;;;;;27.60;11.13;;;8.10;99.90;;;;;;5014570;28;20132;-80
2021/12/28 09:44:57;;;;;;;28.15;11.68;;;8.20;99.90;;;;;;5013392;28;20338;-80
2021/12/28 09:47:22;;;;;;;32.60;12.05;;;8.20;99.90;;;;;;5002980;28;20049;-80
2021/12/28 09:49:49;;;;;;;21.77;10.70;;;8.30;99.90;;;;;;5021842;28;20052;-80
2021/12/28 09:52:16;;;;;;;23.15;11.25;;;8.20;99.90;;;;;;4998379;28;20095;-80
2021/12/28 09:54:43;;;;;;;25.38;11.60;;;8.30;99.90;;;;;;4994484;28;20052;-80
2021/12/28 09:57:12;;;;;;;27.92;11.68;;;8.30;99.90;;;;;;5005962;28;20045;-80
2021/12/28 09:59:38;;;;;;;24.77;10.48;;;8.40;99.90;;;;;;5006102;28;20037;-80
2021/12/28 10:02:09;;;;;;;25.85;10.65;;;8.40;99.90;;;;;;5021007;28;20603;-80
2021/12/28 10:04:35;;;;;;;22.45;10.20;;;8.50;99.90;;;;;;5013178;28;20049;-80
2021/12/28 10:07:20;;;;;;;24.98;10.38;;;8.50;99.90;;;;;;5017704;28;20038;-80
2021/12/28 10:09:46;;;;;;;25.90;10.07;;;8.50;99.90;;;;;;5011330;28;20056;-80
2021/12/28 10:12:12;;;;;;;25.25;9.40;;;8.50;99.90;;;;;;5004953;28;20044;-80
2021/12/28 10:14:38;;;;;;;19.10;9.70;;;8.50;99.90;;;;;;5017972;28;20125;-80
2021/12/28 10:17:06;;;;;;;21.05;9.70;;;8.60;99.90;;;;;;5018013;28;20033;-80
2021/12/28 10:19:32;;;;;;;22.02;9.65;;;8.50;99.90;;;;;;5015419;28;20107;-80
2021/12/28 10:22:17;;;;;;;17.90;9.02;;;8.50;99.90;;;;;;5010099;28;20045;-80
2021/12/28 10:24:43;;;;;;;;;;;8.50;99.90;;;;;;5010533;28;20416;-80
2021/12/28 10:27:15;;;;;;;24.45;9.60;;;8.50;99.90;;;;;;5017784;28;19999;-80
2021/12/28 10:29:41;;;;;;;27.60;9.68;;;8.50;99.90;;;;;;5019503;28;20124;-80
2021/12/28 10:32:25;;;;;;;25.83;9.93;;;8.60;99.90;;;;;;5002735;28;20083;-80
2021/12/28 10:34:58;;;;;;;17.73;9.07;;;8.50;99.90;;;;;;5017822;28;20860;-79
2021/12/28 10:37:37;;;;;;;24.50;9.15;;;8.60;99.90;;;;;;5036355;28;20299;-80
2021/12/28 10:40:07;;;;;;;24.10;9.75;;;8.60;99.90;;;;;;5011537;28;20037;-80
2021/12/28 10:42:43;;;;;;;23.40;9.95;;;8.70;99.90;;;;;;5037930;28;20052;-80
2021/12/28 10:45:12;;;;;;;26.23;9.60;;;8.70;99.90;;;;;;5024002;28;20271;-80
2021/12/28 10:47:38;;;;;;;24.67;9.25;;;8.70;99.90;;;;;;5022154;28;20322;-80
2021/12/28 10:50:19;;;;;;;22.58;9.88;;;8.70;99.90;;;;;;5038746;28;20036;-80
2021/12/28 10:52:50;;;;;;;26.17;10.65;;;8.70;99.90;;;;;;5035612;28;20041;-80
2021/12/28 10:55:23;;;;;;;23.10;10.00;;;8.80;99.90;;;;;;5011190;28;20412;-80
2021/12/28 10:57:49;;;;;;;25.35;9.43;;;8.70;99.90;;;;;;5020284;28;20104;-80
2021/12/28 11:00:28;;;;;;;27.20;10.68;;;8.70;99.90;;;;;;5009837;28;20032;-80
2021/12/28 11:03:31;;;;;;;21.73;10.45;;;8.70;99.90;;;;;;5021187;28;20586;-80
2021/12/28 11:06:00;;;;;;;25.20;11.48;;;8.80;99.90;;;;;;5019434;28;20051;-80
2021/12/28 11:08:28;;;;;;;24.15;10.95;;;8.70;99.90;;;;;;5015519;28;20493;-80
2021/12/28 11:10:58;;;;;;;26.05;10.98;;;8.80;99.90;;;;;;5017934;28;20131;-80
2021/12/28 11:13:30;;;;;;;29.17;11.38;;;8.80;99.90;;;;;;5024627;28;20076;-80
2021/12/28 11:15:57;;;;;;;23.10;10.75;;;8.80;99.90;;;;;;5021023;28;20609;-80
2021/12/28 11:18:33;;;;;;;22.17;11.07;;;8.90;99.90;;;;;;5008630;28;20124;-80
2021/12/28 11:21:08;;;;;;;21.27;9.95;;;8.80;99.90;;;;;;5017880;28;20544;-80
2021/12/28 11:23:34;;;;;;;19.05;10.43;;;8.90;99.90;;;;;;5009508;28;20072;-81
2021/12/28 11:26:12;;;;;;;26.92;11.13;;;8.90;99.90;;;;;;5015014;28;20429;-80
2021/12/28 11:28:43;;;;;;;21.52;11.30;;;8.80;99.90;;;;;;5011237;28;20045;-80
2021/12/28 11:31:15;;;;;;;21.17;11.90;;;8.80;99.90;;;;;;5011080;28;20037;-80
2021/12/28 11:33:48;;;;;;;21.90;12.15;;;8.90;99.90;;;;;;5008479;28;20053;-80
2021/12/28 11:36:16;;;;;;;21.50;11.63;;;8.90;99.90;;;;;;5014058;28;20040;-80
2021/12/28 11:38:42;;;;;;;20.70;12.27;;;8.90;99.90;;;;;;5000454;28;20052;-80
2021/12/28 11:41:09;;;;;;;22.63;11.68;;;8.90;99.90;;;;;;5010775;28;20119;-80
2021/12/28 11:43:37;;;;;;;24.20;12.73;;;9.00;99.90;;;;;;5022680;28;20641;-80
2021/12/28 11:46:04;;;;;;;24.08;12.77;;;9.00;99.90;;;;;;5016272;28;20068;-80
2021/12/28 11:48:31;;;;;;;21.58;12.80;;;9.00;99.90;;;;;;5009017;28;20063;-80
2021/12/28 11:50:58;;;;;;;20.95;12.43;;;9.00;99.90;;;;;;5029095;28;20068;-80
2021/12/28 11:53:24;;;;;;;22.95;12.15;;;9.10;99.90;;;;;;5009601;28;20049;-80
2021/12/28 11:55:54;;;;;;;22.17;12.98;;;9.10;99.90;;;;;;5041005;28;20120;-80
2021/12/28 11:58:19;;;;;;;21.58;12.32;;;9.10;99.90;;;;;;5013290;28;20040;-80
2021/12/28 12:00:45;;;;;;;20.67;12.25;;;9.00;99.90;;;;;;5010946;28;20029;-80
2021/12/28 12:03:36;;;;;;;22.60;12.60;;;9.10;99.90;;;;;;5002255;28;20041;-80
2021/12/28 12:06:02;;;;;;;21.55;12.13;;;9.10;99.90;;;;;;5005641;28;20041;-80
2021/12/28 12:08:28;;;;;;;21.10;11.93;;;9.10;99.90;;;;;;5025882;28;20080;-80
2021/12/28 12:11:02;;;;;;;17.35;11.68;;;9.10;99.90;;;;;;5019378;28;20045;-80
2021/12/28 12:13:29;;;;;;;;;;;9.10;99.90;;;;;;5008657;28;20110;-80
2021/12/28 12:16:13;;;;;;;24.10;11.65;;;9.10;99.90;;;;;;5022814;28;20024;-80
2021/12/28 12:18:48;;;;;;;18.00;10.75;;;9.10;99.90;;;;;;5013270;28;20135;-80
2021/12/28 12:21:22;;;;;;;16.48;10.93;;;9.10;99.90;;;;;;5003942;28;20037;-80
2021/12/28 12:23:52;;;;;;;18.00;10.63;;;9.10;99.90;;;;;;5009537;28;20033;-80
2021/12/28 12:26:33;;;;;;;16.58;11.30;;;9.20;99.90;;;;;;5017526;28;20068;-80
2021/12/28 12:28:59;;;;;;;19.55;10.70;;;9.20;99.90;;;;;;4997265;28;20068;-80
2021/12/28 12:31:28;;;;;;;15.25;10.13;;;9.20;99.90;;;;;;5000614;28;20480;-80
2021/12/28 12:33:55;;;;;;;14.60;10.25;;;9.20;99.90;;;;;;5018199;28;20095;-80
2021/12/28 12:36:31;;;;;;;15.52;9.88;;;9.20;99.90;;;;;;5013966;28;20476;-81